Observation data for Anton on 01/19/2019      Previous  Date  Next       Current Mesonet Observations  Soil Data  Daily Summary Page  Observations in Plain Language
KAOS 190600Z 34022G28KT 01/M01 A3007 RMK A01 T00131013  RH  084%=      5-min Rain = 0
KAOS 190605Z 34023G31KT 01/M01 A3008 RMK A01 T00141013  RH  083%=      5-min Rain = 0
KAOS 190610Z 34026G33KT 01/M02 A3008 RMK A01 T00131017  RH  081%=      5-min Rain = 0
KAOS 190615Z 33023G30KT 01/M02 A3008 RMK A01 T00111018  RH  082%=      5-min Rain = 0
KAOS 190620Z 33023G28KT 01/M02 A3009 RMK A01 T00101020  RH  081%=      5-min Rain = 0
KAOS 190625Z 33021G26KT 01/M02 A3009 RMK A01 T00081020  RH  082%=      5-min Rain = 0
KAOS 190630Z 33022G27KT 01/M02 A3009 RMK A01 T00081020  RH  082%=      5-min Rain = 0
KAOS 190635Z 34021G27KT 01/M02 A3009 RMK A01 T00081020  RH  082%=      5-min Rain = 0
KAOS 190640Z 34019G24KT 01/M02 A3009 RMK A01 T00071019  RH  083%=      5-min Rain = 0
KAOS 190645Z 33019KT 01/M02 A3009 RMK A01 T00091017  RH  084%=      5-min Rain = 0
KAOS 190650Z 33020G26KT 01/M02 A3009 RMK A01 T00091016  RH  084%=      5-min Rain = 0
KAOS 190655Z 33022KT 01/M02 A3009 RMK A01 T00081019  RH  082%=      5-min Rain = 0
KAOS 190700Z 33021G26KT 01/M02 A3009 RMK A01 T00071022  RH  081%=      5-min Rain = 0
KAOS 190705Z 33023G28KT 01/M03 A3009 RMK A01 T00071025  RH  080%=      5-min Rain = 0
KAOS 190710Z 33021G27KT 01/M03 A301 RMK A01 T00051026  RH  080%=      5-min Rain = 0
KAOS 190715Z 34023KT 01/M03 A301 RMK A01 T00051028  RH  079%=      5-min Rain = 0
KAOS 190720Z 34021G28KT 00/M03 A301 RMK A01 T00041028  RH  080%=      5-min Rain = 0
KAOS 190725Z 34021G28KT 00/M03 A301 RMK A01 T00031028  RH  080%=      5-min Rain = 0
KAOS 190730Z 34018G24KT 00/M03 A301 RMK A01 T00021028  RH  081%=      5-min Rain = 0
KAOS 190735Z 33018G23KT 00/M03 A301 RMK A01 T00021027  RH  082%=      5-min Rain = 0
KAOS 190740Z 32016G21KT 00/M03 A3011 RMK A01 T00011026  RH  083%=      5-min Rain = 0
KAOS 190745Z 33019G25KT 00/M03 A3011 RMK A01 T00021027  RH  082%=      5-min Rain = 0
KAOS 190750Z 33021G28KT 00/M03 A3011 RMK A01 T00031030  RH  079%=      5-min Rain = 0
KAOS 190755Z 33019G25KT 00/M03 A3012 RMK A01 T00021030  RH  079%=      5-min Rain = 0
KAOS 190800Z 32016KT 00/03 A3012 RMK A01 T00-00-29  RH  081%=      5-min Rain = 0
KAOS 190805Z 32016G21KT M00/M03 A3013 RMK A01 T10011029  RH  082%=      5-min Rain = 0
KAOS 190810Z 32017G24KT M00/M03 A3013 RMK A01 T10011030  RH  081%=      5-min Rain = 0
KAOS 190815Z 32020G26KT 00/03 A3013 RMK A01 T00000-33  RH  079%=      5-min Rain = 0
KAOS 190820Z 32019G24KT 00/03 A3014 RMK A01 T00-00-33  RH  079%=      5-min Rain = 0
KAOS 190825Z 32017G22KT M00/M03 A3014 RMK A01 T10021032  RH  080%=      5-min Rain = 0
KAOS 190830Z 32018G23KT M00/M03 A3014 RMK A01 T10021033  RH  080%=      5-min Rain = 0
KAOS 190835Z 32018G23KT M00/M03 A3014 RMK A01 T10021033  RH  080%=      5-min Rain = 0
KAOS 190840Z 32018G24KT M00/M03 A3014 RMK A01 T10021033  RH  080%=      5-min Rain = 0
KAOS 190845Z 32018G23KT M00/M03 A3014 RMK A01 T10021033  RH  080%=      5-min Rain = 0
KAOS 190850Z 32019G24KT M00/M03 A3014 RMK A01 T10021034  RH  079%=      5-min Rain = 0
KAOS 190855Z 32022G28KT M00/M04 A3014 RMK A01 T10021036  RH  078%=      5-min Rain = 0
KAOS 190900Z 33022G28KT M00/M04 A3014 RMK A01 T10021037  RH  078%=      5-min Rain = 0
KAOS 190905Z 33022G29KT M00/M04 A3014 RMK A01 T10021038  RH  077%=      5-min Rain = 0
KAOS 190910Z 33023KT M00/M04 A3014 RMK A01 T10021039  RH  077%=      5-min Rain = 0
KAOS 190915Z 33021KT M00/M04 A3014 RMK A01 T10031038  RH  077%=      5-min Rain = 0
KAOS 190920Z 33018G25KT M00/M04 A3015 RMK A01 T10041037  RH  079%=      5-min Rain = 0
KAOS 190925Z 33019G24KT M01/M04 A3015 RMK A01 T10051036  RH  080%=      5-min Rain = 0
KAOS 190930Z 32022G29KT M00/M04 A3015 RMK A01 T10031036  RH  079%=      5-min Rain = 0
KAOS 190935Z 32022G29KT M00/M04 A3015 RMK A01 T10031036  RH  079%=      5-min Rain = 0
KAOS 190940Z 32020G25KT M00/M04 A3015 RMK A01 T10031036  RH  079%=      5-min Rain = 0
KAOS 190945Z 32020KT M00/M04 A3016 RMK A01 T10041036  RH  079%=      5-min Rain = 0
KAOS 190950Z 32019G24KT M01/M04 A3016 RMK A01 T10051036  RH  080%=      5-min Rain = 0
KAOS 190955Z 32017KT M01/M04 A3017 RMK A01 T10061036  RH  080%=      5-min Rain = 0
KAOS 191000Z 32015KT M01/M04 A3017 RMK A01 T10061035  RH  081%=      5-min Rain = 0
KAOS 191005Z 31015KT M01/M04 A3017 RMK A01 T10061035  RH  081%=      5-min Rain = 0
KAOS 191010Z 31015KT M01/M04 A3018 RMK A01 T10081035  RH  082%=      5-min Rain = 0
KAOS 191015Z 30016KT M01/M04 A3018 RMK A01 T10091035  RH  083%=      5-min Rain = 0
KAOS 191020Z 30016KT M01/M04 A3018 RMK A01 T10101035  RH  084%=      5-min Rain = 0
KAOS 191025Z 30016KT M01/M04 A3018 RMK A01 T10091035  RH  083%=      5-min Rain = 0
KAOS 191030Z 31016KT M01/M04 A3018 RMK A01 T10091035  RH  083%=      5-min Rain = 0
KAOS 191035Z 31016KT M01/M04 A3018 RMK A01 T10081035  RH  082%=      5-min Rain = 0
KAOS 191040Z 31015KT M01/M04 A3018 RMK A01 T10081035  RH  082%=      5-min Rain = 0
KAOS 191045Z 31015KT M01/M04 A3018 RMK A01 T10071035  RH  082%=      5-min Rain = 0
KAOS 191050Z 31015KT M01/M04 A3019 RMK A01 T10061036  RH  081%=      5-min Rain = 0
KAOS 191055Z 31014KT M01/M04 A3019 RMK A01 T10051036  RH  080%=      5-min Rain = 0
KAOS 191100Z 32013KT M01/M04 A3019 RMK A01 T10051036  RH  080%=      5-min Rain = 0
KAOS 191105Z 32011KT M01/M04 A3019 RMK A01 T10071036  RH  081%=      5-min Rain = 0
KAOS 191110Z 32010KT M01/M04 A3019 RMK A01 T10091036  RH  082%=      5-min Rain = 0
KAOS 191115Z 31010KT M01/M04 A3019 RMK A01 T10101037  RH  083%=      5-min Rain = 0
KAOS 191120Z 31009KT M01/M04 A3019 RMK A01 T10121037  RH  083%=      5-min Rain = 0
KAOS 191125Z 32007KT M01/M04 A3018 RMK A01 T10141038  RH  084%=      5-min Rain = 0
KAOS 191130Z 31007KT M02/M04 A3018 RMK A01 T10151039  RH  084%=      5-min Rain = 0
KAOS 191135Z 31007KT M02/M04 A3019 RMK A01 T10171039  RH  085%=      5-min Rain = 0
KAOS 191140Z 30007KT M02/M04 A3019 RMK A01 T10191040  RH  085%=      5-min Rain = 0
KAOS 191145Z 28006KT M02/M04 A3019 RMK A01 T10201041  RH  086%=      5-min Rain = 0
KAOS 191150Z 28006KT M02/M04 A3019 RMK A01 T10221042  RH  087%=      5-min Rain = 0
KAOS 191155Z 30004KT M02/M04 A3019 RMK A01 T10241043  RH  087%=      5-min Rain = 0
KAOS 191200Z 31003KT M02/M04 A3019 RMK A01 T10241043  RH  087%=      5-min Rain = 0
KAOS 191205Z 31005KT M02/M04 A302 RMK A01 T10241044  RH  087%=      5-min Rain = 0
KAOS 191210Z 31007KT M02/M04 A302 RMK A01 T10221044  RH  086%=      5-min Rain = 0
KAOS 191215Z 32007KT M02/M04 A302 RMK A01 T10201043  RH  084%=      5-min Rain = 0
KAOS 191220Z 32006KT M02/M04 A302 RMK A01 T10191044  RH  084%=      5-min Rain = 0
KAOS 191225Z 32005KT M02/M04 A302 RMK A01 T10201044  RH  084%=      5-min Rain = 0
KAOS 191230Z 32005KT M02/M05 A302 RMK A01 T10231046  RH  084%=      5-min Rain = 0
KAOS 191235Z 31007KT M03/M05 A3021 RMK A01 T10251046  RH  086%=      5-min Rain = 0
KAOS 191240Z 30008KT M02/M05 A3022 RMK A01 T10231046  RH  085%=      5-min Rain = 0
KAOS 191245Z 29009KT M02/M04 A3022 RMK A01 T10211044  RH  085%=      5-min Rain = 0
KAOS 191250Z 29009KT M02/M04 A3023 RMK A01 T10211044  RH  085%=      5-min Rain = 0
KAOS 191255Z 29009KT M02/M04 A3023 RMK A01 T10211044  RH  085%=      5-min Rain = 0
KAOS 191300Z 30009KT M02/M04 A3023 RMK A01 T10211043  RH  085%=      5-min Rain = 0
KAOS 191305Z 30010KT M02/M04 A3023 RMK A01 T10211043  RH  085%=      5-min Rain = 0
KAOS 191310Z 29010KT M02/M04 A3024 RMK A01 T10211043  RH  085%=      5-min Rain = 0
KAOS 191315Z 29009KT M02/M04 A3023 RMK A01 T10231044  RH  086%=      5-min Rain = 0
KAOS 191320Z 29009KT M02/M05 A3024 RMK A01 T10241045  RH  086%=      5-min Rain = 0
KAOS 191325Z 29009KT M02/M05 A3024 RMK A01 T10241045  RH  086%=      5-min Rain = 0
KAOS 191330Z 30010KT M02/M04 A3024 RMK A01 T10221044  RH  085%=      5-min Rain = 0
KAOS 191335Z 30010KT M02/M04 A3024 RMK A01 T10211044  RH  084%=      5-min Rain = 0
KAOS 191340Z 30010KT M02/M04 A3025 RMK A01 T10181043  RH  084%=      5-min Rain = 0
KAOS 191345Z 30010KT M02/M04 A3025 RMK A01 T10181043  RH  083%=      5-min Rain = 0
KAOS 191350Z 30010KT M02/M04 A3025 RMK A01 T10181043  RH  083%=      5-min Rain = 0
KAOS 191355Z 30010KT M02/M04 A3025 RMK A01 T10181043  RH  083%=      5-min Rain = 0
KAOS 191400Z 30010KT M02/M04 A3025 RMK A01 T10191044  RH  083%=      5-min Rain = 0
KAOS 191405Z 29011KT M02/M04 A3026 RMK A01 T10171043  RH  083%=      5-min Rain = 0
KAOS 191410Z 29012KT M02/M04 A3026 RMK A01 T10151042  RH  082%=      5-min Rain = 0
KAOS 191415Z 29012KT M01/M04 A3026 RMK A01 T10131041  RH  082%=      5-min Rain = 0
KAOS 191420Z 29012KT M01/M04 A3026 RMK A01 T10111040  RH  081%=      5-min Rain = 0
KAOS 191425Z 29012KT M01/M04 A3027 RMK A01 T10091039  RH  080%=      5-min Rain = 0
KAOS 191430Z 29012KT M01/M04 A3027 RMK A01 T10061038  RH  080%=      5-min Rain = 0
KAOS 191435Z 29011KT M01/M04 A3027 RMK A01 T10061037  RH  080%=      5-min Rain = 0
KAOS 191440Z 29011KT M00/M04 A3028 RMK A01 T10041036  RH  080%=      5-min Rain = 0
KAOS 191445Z 30010KT M00/M03 A3028 RMK A01 T10031034  RH  080%=      5-min Rain = 0
KAOS 191450Z 30009KT M00/M03 A3028 RMK A01 T10011033  RH  080%=      5-min Rain = 0
KAOS 191455Z 30009KT 00/M03 A3028 RMK A01 T00021031  RH  079%=      5-min Rain = 0
KAOS 191500Z 29009KT 00/M03 A3028 RMK A01 T00041030  RH  078%=      5-min Rain = 0
KAOS 191505Z 29009KT 01/M03 A3029 RMK A01 T00071029  RH  078%=      5-min Rain = 0
KAOS 191510Z 30010KT 01/M03 A3029 RMK A01 T00091028  RH  077%=      5-min Rain = 0
KAOS 191515Z 31012KT 01/M03 A303 RMK A01 T00141026  RH  075%=      5-min Rain = 0
KAOS 191520Z 31012KT 02/M03 A303 RMK A01 T00191026  RH  073%=      5-min Rain = 0
KAOS 191525Z 32012KT 02/M02 A303 RMK A01 T00231023  RH  072%=      5-min Rain = 0
KAOS 191530Z 32013KT 03/M02 A303 RMK A01 T00281023  RH  070%=      5-min Rain = 0
KAOS 191535Z 32014KT 03/M02 A303 RMK A01 T00331022  RH  068%=      5-min Rain = 0
KAOS 191540Z 32014KT 04/M02 A303 RMK A01 T00371021  RH  066%=      5-min Rain = 0
KAOS 191545Z 32016G23KT 04/M02 A303 RMK A01 T00411023  RH  064%=      5-min Rain = 0
KAOS 191550Z 33017G22KT 04/M03 A303 RMK A01 T00441028  RH  060%=      5-min Rain = 0
KAOS 191555Z 33017KT 05/M03 A303 RMK A01 T00461030  RH  058%=      5-min Rain = 0
KAOS 191600Z 32018G23KT 05/M03 A303 RMK A01 T00471030  RH  058%=      5-min Rain = 0
KAOS 191605Z 33018G23KT 05/M03 A3031 RMK A01 T00481032  RH  056%=      5-min Rain = 0
KAOS 191610Z 33017G23KT 05/M03 A3031 RMK A01 T00501030  RH  057%=      5-min Rain = 0
KAOS 191615Z 33017G22KT 05/M03 A3031 RMK A01 T00521029  RH  056%=      5-min Rain = 0
KAOS 191620Z 33018KT 05/M03 A3031 RMK A01 T00541029  RH  055%=      5-min Rain = 0
KAOS 191625Z 33019G26KT 05/M03 A3031 RMK A01 T00541032  RH  054%=      5-min Rain = 0
KAOS 191630Z 34018G24KT 06/M03 A3031 RMK A01 T00561033  RH  053%=      5-min Rain = 0
KAOS 191635Z 33020KT 06/M03 A3031 RMK A01 T00571034  RH  052%=      5-min Rain = 0
KAOS 191640Z 33019G25KT 06/M03 A3031 RMK A01 T00601032  RH  052%=      5-min Rain = 0
KAOS 191645Z 34020KT 06/M03 A3031 RMK A01 T00601034  RH  051%=      5-min Rain = 0
KAOS 191650Z 34020G25KT 06/M03 A3031 RMK A01 T00611033  RH  051%=      5-min Rain = 0
KAOS 191655Z 33019KT 06/M03 A3031 RMK A01 T00621033  RH  051%=      5-min Rain = 0
KAOS 191700Z 34020KT 06/M03 A3031 RMK A01 T00631033  RH  050%=      5-min Rain = 0
KAOS 191705Z 34019G24KT 06/M03 A3031 RMK A01 T00641033  RH  050%=      5-min Rain = 0
KAOS 191710Z 33020KT 07/M03 A3031 RMK A01 T00661032  RH  050%=      5-min Rain = 0
KAOS 191715Z 35019G25KT 07/M03 A3031 RMK A01 T00681032  RH  049%=      5-min Rain = 0
KAOS 191720Z 34019G24KT 07/M03 A3031 RMK A01 T00711030  RH  049%=      5-min Rain = 0
KAOS 191725Z 34020G25KT 07/M03 A3031 RMK A01 T00731030  RH  048%=      5-min Rain = 0
KAOS 191730Z 34020KT 07/M03 A3031 RMK A01 T00701031  RH  049%=      5-min Rain = 0
KAOS 191735Z 34020G25KT 07/M03 A3031 RMK A01 T00731029  RH  048%=      5-min Rain = 0
KAOS 191740Z 35021KT 08/M03 A3031 RMK A01 T00761029  RH  048%=      5-min Rain = 0
KAOS 191745Z 34021KT 08/M03 A3032 RMK A01 T00781029  RH  047%=      5-min Rain = 0
KAOS 191750Z 34019G24KT 08/M03 A3031 RMK A01 T00781029  RH  047%=      5-min Rain = 0
KAOS 191755Z 34020KT 08/M03 A3031 RMK A01 T00791029  RH  047%=      5-min Rain = 0
KAOS 191800Z 34018G26KT 08/M03 A3031 RMK A01 T00781029  RH  047%=      5-min Rain = 0
KAOS 191805Z 34019KT 08/M03 A3031 RMK A01 T00801029  RH  046%=      5-min Rain = 0
KAOS 191810Z 34018G23KT 08/M03 A3031 RMK A01 T00831029  RH  046%=      5-min Rain = 0
KAOS 191815Z 34018KT 08/M03 A3031 RMK A01 T00791031  RH  046%=      5-min Rain = 0
KAOS 191820Z 34018G24KT 08/M03 A3031 RMK A01 T00821030  RH  046%=      5-min Rain = 0
KAOS 191825Z 34017G22KT 09/M03 A3031 RMK A01 T00851029  RH  045%=      5-min Rain = 0
KAOS 191830Z 34017KT 09/M03 A3031 RMK A01 T00861029  RH  045%=      5-min Rain = 0
KAOS 191835Z 34018KT 09/M03 A3031 RMK A01 T00861028  RH  045%=      5-min Rain = 0
KAOS 191840Z 33018G25KT 09/M03 A3031 RMK A01 T00901028  RH  044%=      5-min Rain = 0
KAOS 191845Z 34017G22KT 09/M03 A3031 RMK A01 T00901030  RH  043%=      5-min Rain = 0
KAOS 191850Z 34020KT 09/M03 A3031 RMK A01 T00921032  RH  042%=      5-min Rain = 0
KAOS 191855Z 34018G24KT 09/M03 A303 RMK A01 T00931031  RH  042%=      5-min Rain = 0
KAOS 191900Z 33019KT 10/M03 A303 RMK A01 T00951033  RH  041%=      5-min Rain = 0
KAOS 191905Z 34018G23KT 10/M03 A303 RMK A01 T00951032  RH  041%=      5-min Rain = 0
KAOS 191910Z 34018G23KT 10/M03 A303 RMK A01 T00951033  RH  041%=      5-min Rain = 0
KAOS 191915Z 33016G23KT 10/M03 A303 RMK A01 T00951033  RH  041%=      5-min Rain = 0
KAOS 191920Z 34017G23KT 10/M03 A3029 RMK A01 T00971032  RH  040%=      5-min Rain = 0
KAOS 191925Z 33016G22KT 10/M03 A3029 RMK A01 T00991031  RH  040%=      5-min Rain = 0
KAOS 191930Z 34016G23KT 10/M03 A3029 RMK A01 T00981030  RH  041%=      5-min Rain = 0
KAOS 191935Z 34015G20KT 10/M03 A3029 RMK A01 T00991030  RH  040%=      5-min Rain = 0
KAOS 191940Z 33016G21KT 10/M03 A3029 RMK A01 T00961031  RH  041%=      5-min Rain = 0
KAOS 191945Z 33014KT 10/M03 A3029 RMK A01 T00981033  RH  040%=      5-min Rain = 0
KAOS 191950Z 33014KT 10/M03 A3029 RMK A01 T01001031  RH  040%=      5-min Rain = 0
KAOS 191955Z 33012G19KT 10/M03 A3029 RMK A01 T00971031  RH  041%=      5-min Rain = 0
KAOS 192000Z 32012KT 10/M03 A3028 RMK A01 T01011030  RH  040%=      5-min Rain = 0
KAOS 192005Z 32015G20KT 10/M03 A3028 RMK A01 T01041029  RH  039%=      5-min Rain = 0
KAOS 192010Z 32012G19KT 10/M03 A3028 RMK A01 T01021030  RH  039%=      5-min Rain = 0
KAOS 192015Z 31012KT 11/M03 A3028 RMK A01 T01051031  RH  039%=      5-min Rain = 0
KAOS 192020Z 31012G17KT 10/M03 A3027 RMK A01 T01041031  RH  039%=      5-min Rain = 0
KAOS 192025Z 32012KT 11/M03 A3027 RMK A01 T01051029  RH  039%=      5-min Rain = 0
KAOS 192030Z 31012G18KT 10/M03 A3027 RMK A01 T01041030  RH  039%=      5-min Rain = 0
KAOS 192035Z 32012G17KT 10/M03 A3027 RMK A01 T01041027  RH  040%=      5-min Rain = 0
KAOS 192040Z 33011KT 10/M03 A3027 RMK A01 T01041027  RH  040%=      5-min Rain = 0
KAOS 192045Z 31008G13KT 10/M03 A3027 RMK A01 T01041026  RH  040%=      5-min Rain = 0
KAOS 192050Z 32012G17KT 11/M03 A3026 RMK A01 T01061027  RH  040%=      5-min Rain = 0
KAOS 192055Z 31011G17KT 10/M03 A3026 RMK A01 T01031027  RH  040%=      5-min Rain = 0
KAOS 192100Z 32011G17KT 10/M03 A3026 RMK A01 T01041026  RH  040%=      5-min Rain = 0
KAOS 192105Z 32008G14KT 10/M03 A3026 RMK A01 T01031025  RH  041%=      5-min Rain = 0
KAOS 192110Z 33011G17KT 11/M02 A3026 RMK A01 T01071024  RH  040%=      5-min Rain = 0
KAOS 192115Z 31008KT 11/M02 A3026 RMK A01 T01081024  RH  040%=      5-min Rain = 0
KAOS 192120Z 32010KT 11/M03 A3026 RMK A01 T01101025  RH  039%=      5-min Rain = 0
KAOS 192125Z 33010G16KT 11/M03 A3026 RMK A01 T01081027  RH  039%=      5-min Rain = 0
KAOS 192130Z 33013KT 11/M03 A3026 RMK A01 T01091027  RH  039%=      5-min Rain = 0
KAOS 192135Z 31009KT 11/M03 A3026 RMK A01 T01071027  RH  039%=      5-min Rain = 0
KAOS 192140Z 31010G16KT 11/M03 A3026 RMK A01 T01081028  RH  039%=      5-min Rain = 0
KAOS 192145Z 31010KT 11/M03 A3026 RMK A01 T01101029  RH  038%=      5-min Rain = 0
KAOS 192150Z 33009KT 11/M03 A3026 RMK A01 T01091027  RH  039%=      5-min Rain = 0
KAOS 192155Z 32010KT 11/M03 A3026 RMK A01 T01111030  RH  037%=      5-min Rain = 0
KAOS 192200Z 33008KT 11/M03 A3026 RMK A01 T01081030  RH  038%=      5-min Rain = 0
KAOS 192205Z 31009KT 11/M03 A3026 RMK A01 T01111030  RH  037%=      5-min Rain = 0
KAOS 192210Z 32009KT 11/M03 A3026 RMK A01 T01111032  RH  037%=      5-min Rain = 0
KAOS 192215Z 33010KT 11/M03 A3025 RMK A01 T01101031  RH  037%=      5-min Rain = 0
KAOS 192220Z 33010KT 11/M03 A3025 RMK A01 T01081032  RH  038%=      5-min Rain = 0
KAOS 192225Z 34008KT 11/M03 A3025 RMK A01 T01081031  RH  038%=      5-min Rain = 0
KAOS 192230Z 33007KT 11/M03 A3025 RMK A01 T01081030  RH  038%=      5-min Rain = 0
KAOS 192235Z 34007KT 11/M03 A3025 RMK A01 T01101030  RH  038%=      5-min Rain = 0
KAOS 192240Z 34009KT 11/M03 A3025 RMK A01 T01081030  RH  038%=      5-min Rain = 0
KAOS 192245Z 34009KT 11/M03 A3025 RMK A01 T01071031  RH  038%=      5-min Rain = 0
KAOS 192250Z 35008KT 11/M03 A3025 RMK A01 T01061030  RH  038%=      5-min Rain = 0
KAOS 192255Z 36008KT 11/M03 A3025 RMK A01 T01071029  RH  039%=      5-min Rain = 0
KAOS 192300Z 00008KT 11/M03 A3025 RMK A01 T01071030  RH  038%=      5-min Rain = 0
KAOS 192305Z 35006KT 11/M03 A3025 RMK A01 T01071031  RH  038%=      5-min Rain = 0
KAOS 192310Z 00008KT 11/M03 A3025 RMK A01 T01061031  RH  038%=      5-min Rain = 0
KAOS 192315Z 35007KT 11/M03 A3025 RMK A01 T01061031  RH  038%=      5-min Rain = 0
KAOS 192320Z 35008KT 11/M03 A3025 RMK A01 T01051031  RH  038%=      5-min Rain = 0
KAOS 192325Z 35006KT 10/M03 A3025 RMK A01 T01031032  RH  039%=      5-min Rain = 0
KAOS 192330Z 00007KT 10/M03 A3025 RMK A01 T01031033  RH  039%=      5-min Rain = 0
KAOS 192335Z 36007KT 10/M03 A3025 RMK A01 T01011032  RH  039%=      5-min Rain = 0
KAOS 192340Z 36007KT 10/M03 A3025 RMK A01 T00991034  RH  039%=      5-min Rain = 0
KAOS 192345Z 01006KT 10/M04 A3025 RMK A01 T00981035  RH  039%=      5-min Rain = 0
KAOS 192350Z 02006KT 09/M04 A3025 RMK A01 T00941038  RH  039%=      5-min Rain = 0
KAOS 192355Z 01007KT 09/M04 A3025 RMK A01 T00901038  RH  040%=      5-min Rain = 0
KAOS 200000Z 01007KT 09/M04 A3025 RMK A01 T00861040  RH  041%=      5-min Rain = 0
KAOS 200005Z 01007KT 08/M04 A3025 RMK A01 T00801042  RH  042%=      5-min Rain = 0
KAOS 200010Z 02008KT 08/M04 A3025 RMK A01 T00751044  RH  043%=      5-min Rain = 0
KAOS 200015Z 02007KT 07/M05 A3025 RMK A01 T00721045  RH  043%=      5-min Rain = 0
KAOS 200020Z 02006KT 07/M05 A3025 RMK A01 T00681047  RH  044%=      5-min Rain = 0
KAOS 200025Z 03006KT 06/M05 A3025 RMK A01 T00641047  RH  045%=      5-min Rain = 0
KAOS 200030Z 04006KT 06/M05 A3025 RMK A01 T00591051  RH  045%=      5-min Rain = 0
KAOS 200035Z 08005KT 05/M06 A3026 RMK A01 T00471056  RH  047%=      5-min Rain = 0
KAOS 200040Z 07007KT 05/M05 A3025 RMK A01 T00451050  RH  051%=      5-min Rain = 0
KAOS 200045Z 07007KT 05/M05 A3026 RMK A01 T00501047  RH  050%=      5-min Rain = 0
KAOS 200050Z 06008KT 05/M05 A3026 RMK A01 T00461050  RH  050%=      5-min Rain = 0
KAOS 200055Z 06008KT 04/M05 A3026 RMK A01 T00411053  RH  051%=      5-min Rain = 0
KAOS 200100Z 05008KT 04/M06 A3026 RMK A01 T00361056  RH  051%=      5-min Rain = 0
KAOS 200105Z 06009KT 03/M06 A3026 RMK A01 T00321058  RH  052%=      5-min Rain = 0
KAOS 200110Z 10006KT 03/M06 A3026 RMK A01 T00271060  RH  053%=      5-min Rain = 0
KAOS 200115Z 09006KT 02/M05 A3026 RMK A01 T00241053  RH  057%=      5-min Rain = 0
KAOS 200120Z 08006KT 03/M05 A3026 RMK A01 T00261051  RH  057%=      5-min Rain = 0
KAOS 200125Z 08005KT 03/M05 A3026 RMK A01 T00251051  RH  057%=      5-min Rain = 0
KAOS 200130Z 09005KT 02/M05 A3026 RMK A01 T00241053  RH  057%=      5-min Rain = 0
KAOS 200135Z 09006KT 02/M05 A3025 RMK A01 T00211053  RH  058%=      5-min Rain = 0
KAOS 200140Z 09007KT 02/M06 A3025 RMK A01 T00171056  RH  058%=      5-min Rain = 0
KAOS 200145Z 10007KT 02/M06 A3024 RMK A01 T00161055  RH  059%=      5-min Rain = 0
KAOS 200150Z 09006KT 02/M06 A3024 RMK A01 T00151056  RH  059%=      5-min Rain = 0
KAOS 200155Z 11005KT 01/M06 A3025 RMK A01 T00131056  RH  060%=      5-min Rain = 0
KAOS 200200Z 11003KT 01/M06 A3025 RMK A01 T00101058  RH  061%=      5-min Rain = 0
KAOS 200205Z 09005KT 01/M06 A3026 RMK A01 T00091056  RH  062%=      5-min Rain = 0
KAOS 200210Z 09006KT 01/M06 A3025 RMK A01 T00101058  RH  061%=      5-min Rain = 0
KAOS 200215Z 10005KT 01/M06 A3026 RMK A01 T00071060  RH  061%=      5-min Rain = 0
KAOS 200220Z 11003KT 01/M06 A3027 RMK A01 T00071059  RH  061%=      5-min Rain = 0
KAOS 200225Z 10005KT 01/M06 A3026 RMK A01 T00071056  RH  063%=      5-min Rain = 0
KAOS 200230Z 08004KT 01/M06 A3027 RMK A01 T00071058  RH  062%=      5-min Rain = 0
KAOS 200235Z 08004KT 01/M06 A3028 RMK A01 T00081056  RH  063%=      5-min Rain = 0
KAOS 200240Z 10005KT 01/M05 A3028 RMK A01 T00081054  RH  063%=      5-min Rain = 0
KAOS 200245Z 12004KT 00/M06 A3028 RMK A01 T00041059  RH  063%=      5-min Rain = 0
KAOS 200250Z 11004KT 00/M06 A3028 RMK A01 T00011061  RH  063%=      5-min Rain = 0
KAOS 200255Z 11004KT 00/M06 A3027 RMK A01 T00011055  RH  066%=      5-min Rain = 0
KAOS 200300Z 12005KT 00/M05 A3027 RMK A01 T00031054  RH  066%=      5-min Rain = 0
KAOS 200305Z 13005KT M00/M06 A3027 RMK A01 T10021062  RH  064%=      5-min Rain = 0
KAOS 200310Z 13004KT M01/M06 A3027 RMK A01 T10081060  RH  068%=      5-min Rain = 0
KAOS 200315Z 14003KT M01/M06 A3027 RMK A01 T10091056  RH  070%=      5-min Rain = 0
KAOS 200320Z 13005KT M01/M05 A3026 RMK A01 T10051053  RH  070%=      5-min Rain = 0
KAOS 200325Z 13004KT M01/M06 A3027 RMK A01 T10051056  RH  069%=      5-min Rain = 0
KAOS 200330Z 12004KT M01/M06 A3027 RMK A01 T10081060  RH  068%=      5-min Rain = 0
KAOS 200335Z 13005KT M01/M06 A3026 RMK A01 T10061058  RH  068%=      5-min Rain = 0
KAOS 200340Z 13004KT M01/M06 A3026 RMK A01 T10061059  RH  068%=      5-min Rain = 0
KAOS 200345Z 12004KT M01/M06 A3026 RMK A01 T10061058  RH  068%=      5-min Rain = 0
KAOS 200350Z 13004KT M01/M06 A3026 RMK A01 T10061059  RH  067%=      5-min Rain = 0
KAOS 200355Z 13003KT M01/M06 A3026 RMK A01 T10061058  RH  068%=      5-min Rain = 0
KAOS 200400Z 13003KT M01/M06 A3026 RMK A01 T10071059  RH  068%=      5-min Rain = 0
KAOS 200405Z 14003KT M01/M06 A3026 RMK A01 T10061058  RH  068%=      5-min Rain = 0
KAOS 200410Z 14002KT M01/M06 A3026 RMK A01 T10071061  RH  067%=      5-min Rain = 0
KAOS 200415Z 14003KT M01/M06 A3026 RMK A01 T10091060  RH  068%=      5-min Rain = 0
KAOS 200420Z 15003KT M01/M06 A3026 RMK A01 T10081059  RH  069%=      5-min Rain = 0
KAOS 200425Z 16004KT M01/M06 A3026 RMK A01 T10111058  RH  071%=      5-min Rain = 0
KAOS 200430Z 15003KT M01/M06 A3026 RMK A01 T10141059  RH  072%=      5-min Rain = 0
KAOS 200435Z 16003KT M01/M06 A3026 RMK A01 T10141059  RH  072%=      5-min Rain = 0
KAOS 200440Z 16003KT M02/M06 A3026 RMK A01 T10151060  RH  071%=      5-min Rain = 0
KAOS 200445Z 15002KT M02/M06 A3026 RMK A01 T10161060  RH  072%=      5-min Rain = 0
KAOS 200450Z 16002KT M02/M06 A3027 RMK A01 T10181061  RH  072%=      5-min Rain = 0
KAOS 200455Z 17003KT M02/M06 A3027 RMK A01 T10201063  RH  072%=      5-min Rain = 0
KAOS 200500Z 16004KT M02/M07 A3027 RMK A01 T10231065  RH  073%=      5-min Rain = 0
KAOS 200505Z 15004KT M02/M06 A3027 RMK A01 T10241062  RH  075%=      5-min Rain = 0
KAOS 200510Z 15004KT M02/M06 A3027 RMK A01 T10241064  RH  074%=      5-min Rain = 0
KAOS 200515Z 15004KT M02/M07 A3027 RMK A01 T10211065  RH  072%=      5-min Rain = 0
KAOS 200520Z 17004KT M02/M07 A3027 RMK A01 T10221066  RH  072%=      5-min Rain = 0
KAOS 200525Z 18005KT M03/M07 A3027 RMK A01 T10251065  RH  074%=      5-min Rain = 0
KAOS 200530Z 18005KT M03/M07 A3028 RMK A01 T10271065  RH  075%=      5-min Rain = 0
KAOS 200535Z 17005KT M03/M07 A3028 RMK A01 T10281065  RH  076%=      5-min Rain = 0
KAOS 200540Z 17004KT M03/M07 A3027 RMK A01 T10281065  RH  076%=      5-min Rain = 0
KAOS 200545Z 18004KT M03/M07 A3028 RMK A01 T10291066  RH  076%=      5-min Rain = 0
KAOS 200550Z 18004KT M03/M07 A3028 RMK A01 T10311067  RH  076%=      5-min Rain = 0
KAOS 200555Z 18004KT M03/M07 A3028 RMK A01 T10311066  RH  076%=      5-min Rain = 0

Page generated in 0.0124 seconds.